sensor_id;sensor_type;location;lat;lon;timestamp;pressure;altitude;pressure_sealevel;temperature;humidity
3096;BME280;1558;42.700;23.360;2023-06-05T00:01:04;95759.16;;;15.86;100.00
3096;BME280;1558;42.700;23.360;2023-06-05T00:03:33;95759.69;;;15.92;100.00
3096;BME280;1558;42.700;23.360;2023-06-05T00:06:06;95762.22;;;15.85;100.00
3096;BME280;1558;42.700;23.360;2023-06-05T00:08:34;95754.75;;;15.82;100.00
3096;BME280;1558;42.700;23.360;2023-06-05T00:11:02;95730.22;;;15.63;100.00
3096;BME280;1558;42.700;23.360;2023-06-05T00:13:31;95753.91;;;15.78;100.00
3096;BME280;1558;42.700;23.360;2023-06-05T00:15:59;95757.09;;;15.64;100.00
3096;BME280;1558;42.700;23.360;2023-06-05T00:18:30;95769.16;;;15.67;100.00
3096;BME280;1558;42.700;23.360;2023-06-05T00:20:58;95715.75;;;15.27;100.00
3096;BME280;1558;42.700;23.360;2023-06-05T00:23:26;95751.19;;;15.46;100.00
3096;BME280;1558;42.700;23.360;2023-06-05T00:25:54;95762.78;;;15.59;100.00
3096;BME280;1558;42.700;23.360;2023-06-05T00:28:22;95755.38;;;15.59;100.00
3096;BME280;1558;42.700;23.360;2023-06-05T00:30:52;95728.63;;;15.30;100.00
3096;BME280;1558;42.700;23.360;2023-06-05T00:33:20;95768.03;;;15.52;100.00
3096;BME280;1558;42.700;23.360;2023-06-05T00:35:48;95774.72;;;15.54;100.00
3096;BME280;1558;42.700;23.360;2023-06-05T00:38:17;95767.84;;;15.61;100.00
3096;BME280;1558;42.700;23.360;2023-06-05T00:40:45;95762.25;;;15.53;100.00
3096;BME280;1558;42.700;23.360;2023-06-05T00:43:13;95768.22;;;15.59;100.00
3096;BME280;1558;42.700;23.360;2023-06-05T00:45:41;95764.72;;;15.58;100.00
3096;BME280;1558;42.700;23.360;2023-06-05T00:48:11;95762.84;;;15.63;100.00
3096;BME280;1558;42.700;23.360;2023-06-05T00:50:39;95754.25;;;15.61;100.00
3096;BME280;1558;42.700;23.360;2023-06-05T00:53:08;95752.25;;;15.57;100.00
3096;BME280;1558;42.700;23.360;2023-06-05T00:55:36;95748.22;;;15.51;100.00
3096;BME280;1558;42.700;23.360;2023-06-05T00:58:05;95742.16;;;15.42;100.00
3096;BME280;1558;42.700;23.360;2023-06-05T01:00:33;95736.53;;;15.35;100.00
3096;BME280;1558;42.700;23.360;2023-06-05T01:03:02;95737.22;;;15.32;100.00
3096;BME280;1558;42.700;23.360;2023-06-05T01:05:32;95738.78;;;15.33;100.00
3096;BME280;1558;42.700;23.360;2023-06-05T01:08:00;95744.16;;;15.30;100.00
3096;BME280;1558;42.700;23.360;2023-06-05T01:10:30;95704.41;;;14.94;100.00
3096;BME280;1558;42.700;23.360;2023-06-05T01:13:03;95741.25;;;15.23;100.00
3096;BME280;1558;42.700;23.360;2023-06-05T01:15:33;95740.72;;;15.17;100.00
3096;BME280;1558;42.700;23.360;2023-06-05T01:18:04;95741.63;;;15.21;100.00
3096;BME280;1558;42.700;23.360;2023-06-05T01:20:35;95740.03;;;15.20;100.00
3096;BME280;1558;42.700;23.360;2023-06-05T01:23:06;95694.84;;;15.00;100.00
3096;BME280;1558;42.700;23.360;2023-06-05T01:25:35;95726.06;;;15.22;100.00
3096;BME280;1558;42.700;23.360;2023-06-05T01:28:07;95729.88;;;15.33;100.00
3096;BME280;1558;42.700;23.360;2023-06-05T01:30:40;95729.50;;;15.34;100.00
3096;BME280;1558;42.700;23.360;2023-06-05T01:33:14;95723.03;;;15.23;100.00
3096;BME280;1558;42.700;23.360;2023-06-05T01:35:45;95670.94;;;14.90;100.00
3096;BME280;1558;42.700;23.360;2023-06-05T01:38:20;95691.44;;;15.03;100.00
3096;BME280;1558;42.700;23.360;2023-06-05T01:40:50;95723.16;;;14.99;100.00
3096;BME280;1558;42.700;23.360;2023-06-05T01:43:19;95716.16;;;14.98;100.00
3096;BME280;1558;42.700;23.360;2023-06-05T01:45:48;95714.84;;;14.92;100.00
3096;BME280;1558;42.700;23.360;2023-06-05T01:48:17;95704.91;;;14.84;100.00
3096;BME280;1558;42.700;23.360;2023-06-05T01:50:45;95711.06;;;14.97;100.00
3096;BME280;1558;42.700;23.360;2023-06-05T01:53:13;95721.94;;;14.97;100.00
3096;BME280;1558;42.700;23.360;2023-06-05T01:55:45;95715.03;;;14.99;100.00
3096;BME280;1558;42.700;23.360;2023-06-05T01:58:13;95720.09;;;15.01;100.00
3096;BME280;1558;42.700;23.360;2023-06-05T02:00:42;95721.41;;;14.91;100.00
3096;BME280;1558;42.700;23.360;2023-06-05T02:03:12;95717.38;;;15.01;100.00
3096;BME280;1558;42.700;23.360;2023-06-05T02:05:42;95715.72;;;14.96;100.00
3096;BME280;1558;42.700;23.360;2023-06-05T02:08:10;95714.34;;;15.18;100.00
3096;BME280;1558;42.700;23.360;2023-06-05T02:10:40;95718.53;;;15.15;100.00
3096;BME280;1558;42.700;23.360;2023-06-05T02:13:11;95719.66;;;15.14;100.00
3096;BME280;1558;42.700;23.360;2023-06-05T02:15:39;95729.22;;;15.24;100.00
3096;BME280;1558;42.700;23.360;2023-06-05T02:18:08;95725.31;;;15.21;100.00
3096;BME280;1558;42.700;23.360;2023-06-05T02:20:36;95664.44;;;14.79;100.00
3096;BME280;1558;42.700;23.360;2023-06-05T02:23:04;95723.09;;;15.11;100.00
3096;BME280;1558;42.700;23.360;2023-06-05T02:25:33;95725.53;;;15.01;100.00
3096;BME280;1558;42.700;23.360;2023-06-05T02:28:01;95667.22;;;14.67;100.00
3096;BME280;1558;42.700;23.360;2023-06-05T02:30:31;95717.44;;;14.88;100.00
3096;BME280;1558;42.700;23.360;2023-06-05T02:33:00;95712.06;;;14.61;100.00
3096;BME280;1558;42.700;23.360;2023-06-05T02:35:29;95726.75;;;14.60;100.00
3096;BME280;1558;42.700;23.360;2023-06-05T02:37:58;95724.69;;;14.69;100.00
3096;BME280;1558;42.700;23.360;2023-06-05T02:40:26;95724.69;;;14.69;100.00
3096;BME280;1558;42.700;23.360;2023-06-05T02:42:54;95703.28;;;14.52;100.00
3096;BME280;1558;42.700;23.360;2023-06-05T02:45:22;95723.72;;;14.61;100.00
3096;BME280;1558;42.700;23.360;2023-06-05T02:47:52;95715.31;;;14.66;100.00
3096;BME280;1558;42.700;23.360;2023-06-05T02:50:20;95715.22;;;14.63;100.00
3096;BME280;1558;42.700;23.360;2023-06-05T02:52:48;95724.38;;;14.58;100.00
3096;BME280;1558;42.700;23.360;2023-06-05T02:55:16;95726.88;;;14.63;100.00
3096;BME280;1558;42.700;23.360;2023-06-05T02:57:44;95726.25;;;14.70;100.00
3096;BME280;1558;42.700;23.360;2023-06-05T03:00:16;95721.91;;;14.81;100.00
3096;BME280;1558;42.700;23.360;2023-06-05T03:02:45;95721.31;;;14.87;100.00
3096;BME280;1558;42.700;23.360;2023-06-05T03:05:17;95731.13;;;14.92;100.00
3096;BME280;1558;42.700;23.360;2023-06-05T03:07:51;95721.84;;;14.93;100.00
3096;BME280;1558;42.700;23.360;2023-06-05T03:10:22;95731.94;;;14.93;100.00
3096;BME280;1558;42.700;23.360;2023-06-05T03:12:50;95734.72;;;14.96;100.00
3096;BME280;1558;42.700;23.360;2023-06-05T03:15:18;95730.16;;;14.84;100.00
3096;BME280;1558;42.700;23.360;2023-06-05T03:17:47;95726.19;;;14.82;100.00
3096;BME280;1558;42.700;23.360;2023-06-05T03:20:17;95726.94;;;14.67;100.00
3096;BME280;1558;42.700;23.360;2023-06-05T03:22:46;95735.34;;;14.89;100.00
3096;BME280;1558;42.700;23.360;2023-06-05T03:25:14;95734.97;;;14.91;100.00
3096;BME280;1558;42.700;23.360;2023-06-05T03:27:42;95739.81;;;14.98;100.00
3096;BME280;1558;42.700;23.360;2023-06-05T03:30:11;95697.06;;;14.67;100.00
3096;BME280;1558;42.700;23.360;2023-06-05T03:32:43;95741.56;;;14.90;100.00
3096;BME280;1558;42.700;23.360;2023-06-05T03:35:11;95738.13;;;14.93;100.00
3096;BME280;1558;42.700;23.360;2023-06-05T03:37:41;95745.41;;;14.89;100.00
3096;BME280;1558;42.700;23.360;2023-06-05T03:40:10;95755.16;;;14.90;100.00
3096;BME280;1558;42.700;23.360;2023-06-05T03:42:39;95745.03;;;14.90;100.00
3096;BME280;1558;42.700;23.360;2023-06-05T03:45:08;95749.28;;;15.04;100.00
3096;BME280;1558;42.700;23.360;2023-06-05T03:47:37;95758.50;;;15.15;100.00
3096;BME280;1558;42.700;23.360;2023-06-05T03:50:06;95747.75;;;15.18;100.00
3096;BME280;1558;42.700;23.360;2023-06-05T03:52:34;95751.31;;;15.22;100.00
3096;BME280;1558;42.700;23.360;2023-06-05T03:55:06;95754.59;;;15.28;100.00
3096;BME280;1558;42.700;23.360;2023-06-05T03:57:36;95748.97;;;15.36;100.00
3096;BME280;1558;42.700;23.360;2023-06-05T04:00:05;95751.63;;;15.48;100.00
3096;BME280;1558;42.700;23.360;2023-06-05T04:02:36;95759.81;;;15.64;100.00
3096;BME280;1558;42.700;23.360;2023-06-05T04:05:06;95750.75;;;15.60;100.00
3096;BME280;1558;42.700;23.360;2023-06-05T04:07:38;95752.25;;;15.57;100.00
3096;BME280;1558;42.700;23.360;2023-06-05T04:10:09;95749.63;;;15.61;100.00
3096;BME280;1558;42.700;23.360;2023-06-05T04:12:37;95737.69;;;15.66;100.00
3096;BME280;1558;42.700;23.360;2023-06-05T04:15:06;95723.97;;;15.62;100.00
3096;BME280;1558;42.700;23.360;2023-06-05T04:17:35;95751.84;;;15.90;100.00
3096;BME280;1558;42.700;23.360;2023-06-05T04:20:06;95745.81;;;15.97;100.00
3096;BME280;1558;42.700;23.360;2023-06-05T04:22:37;95757.38;;;15.94;100.00
3096;BME280;1558;42.700;23.360;2023-06-05T04:25:05;95747.19;;;15.91;100.00
3096;BME280;1558;42.700;23.360;2023-06-05T04:27:38;95759.47;;;16.00;100.00
3096;BME280;1558;42.700;23.360;2023-06-05T04:30:07;95765.13;;;15.92;100.00
3096;BME280;1558;42.700;23.360;2023-06-05T04:32:37;95756.34;;;15.83;100.00
3096;BME280;1558;42.700;23.360;2023-06-05T04:35:06;95760.47;;;15.92;100.00
3096;BME280;1558;42.700;23.360;2023-06-05T04:37:35;95760.97;;;15.98;100.00
3096;BME280;1558;42.700;23.360;2023-06-05T04:40:05;95757.69;;;16.08;100.00
3096;BME280;1558;42.700;23.360;2023-06-05T04:42:37;95750.28;;;16.24;100.00
3096;BME280;1558;42.700;23.360;2023-06-05T04:45:07;95732.53;;;16.30;100.00
3096;BME280;1558;42.700;23.360;2023-06-05T04:47:35;95745.41;;;16.33;100.00
3096;BME280;1558;42.700;23.360;2023-06-05T04:50:05;95720.47;;;16.12;100.00
3096;BME280;1558;42.700;23.360;2023-06-05T04:52:34;95758.63;;;16.50;100.00
3096;BME280;1558;42.700;23.360;2023-06-05T04:55:03;95744.56;;;16.64;100.00
3096;BME280;1558;42.700;23.360;2023-06-05T04:57:32;95749.06;;;16.75;100.00
3096;BME280;1558;42.700;23.360;2023-06-05T05:00:01;95750.75;;;16.83;100.00
3096;BME280;1558;42.700;23.360;2023-06-05T05:02:31;95756.22;;;16.83;100.00
3096;BME280;1558;42.700;23.360;2023-06-05T05:04:59;95745.13;;;16.73;100.00
3096;BME280;1558;42.700;23.360;2023-06-05T05:07:27;95720.88;;;16.68;100.00
3096;BME280;1558;42.700;23.360;2023-06-05T05:09:55;95748.31;;;16.98;100.00
3096;BME280;1558;42.700;23.360;2023-06-05T05:12:23;95750.56;;;17.15;100.00
3096;BME280;1558;42.700;23.360;2023-06-05T05:14:51;95743.25;;;17.19;100.00
3096;BME280;1558;42.700;23.360;2023-06-05T05:17:21;95739.94;;;17.29;100.00
3096;BME280;1558;42.700;23.360;2023-06-05T05:19:49;95741.75;;;17.44;100.00
3096;BME280;1558;42.700;23.360;2023-06-05T05:22:17;95748.06;;;17.48;100.00
3096;BME280;1558;42.700;23.360;2023-06-05T05:24:45;95749.75;;;17.33;100.00
3096;BME280;1558;42.700;23.360;2023-06-05T05:27:13;95745.56;;;17.39;100.00
3096;BME280;1558;42.700;23.360;2023-06-05T05:29:41;95747.78;;;17.53;100.00
3096;BME280;1558;42.700;23.360;2023-06-05T05:32:09;95744.88;;;17.65;100.00
3096;BME280;1558;42.700;23.360;2023-06-05T05:34:39;95720.50;;;17.76;100.00
3096;BME280;1558;42.700;23.360;2023-06-05T05:37:08;95744.16;;;18.47;100.00
3096;BME280;1558;42.700;23.360;2023-06-05T05:39:36;95743.63;;;19.37;100.00
3096;BME280;1558;42.700;23.360;2023-06-05T05:42:04;95739.59;;;20.19;100.00
3096;BME280;1558;42.700;23.360;2023-06-05T05:44:33;95745.69;;;20.49;100.00
3096;BME280;1558;42.700;23.360;2023-06-05T05:47:02;95744.63;;;20.71;100.00
3096;BME280;1558;42.700;23.360;2023-06-05T05:49:30;95727.31;;;20.53;100.00
3096;BME280;1558;42.700;23.360;2023-06-05T05:52:00;95735.31;;;20.93;100.00
3096;BME280;1558;42.700;23.360;2023-06-05T05:54:28;95725.16;;;19.68;100.00
3096;BME280;1558;42.700;23.360;2023-06-05T05:56:56;95724.31;;;19.60;100.00
3096;BME280;1558;42.700;23.360;2023-06-05T05:59:24;95719.13;;;19.99;100.00
3096;BME280;1558;42.700;23.360;2023-06-05T06:01:52;95720.19;;;20.38;100.00
3096;BME280;1558;42.700;23.360;2023-06-05T06:04:21;95727.38;;;20.67;100.00
3096;BME280;1558;42.700;23.360;2023-06-05T06:06:49;95713.72;;;20.06;100.00
3096;BME280;1558;42.700;23.360;2023-06-05T06:09:20;95722.66;;;20.64;100.00
3096;BME280;1558;42.700;23.360;2023-06-05T06:11:49;95726.59;;;20.67;100.00
3096;BME280;1558;42.700;23.360;2023-06-05T06:14:18;95722.00;;;21.03;100.00
3096;BME280;1558;42.700;23.360;2023-06-05T06:16:47;95736.25;;;21.68;100.00
3096;BME280;1558;42.700;23.360;2023-06-05T06:19:16;95719.41;;;21.87;100.00
3096;BME280;1558;42.700;23.360;2023-06-05T06:21:50;95732.38;;;21.90;96.04
3096;BME280;1558;42.700;23.360;2023-06-05T06:24:18;95742.56;;;22.07;94.39
3096;BME280;1558;42.700;23.360;2023-06-05T06:26:49;95715.50;;;21.85;93.66
3096;BME280;1558;42.700;23.360;2023-06-05T06:29:19;95716.63;;;22.08;94.95
3096;BME280;1558;42.700;23.360;2023-06-05T06:31:47;95712.25;;;22.43;92.45
3096;BME280;1558;42.700;23.360;2023-06-05T06:34:16;95722.13;;;22.08;93.57
3096;BME280;1558;42.700;23.360;2023-06-05T06:36:44;95721.34;;;21.55;95.19
3096;BME280;1558;42.700;23.360;2023-06-05T06:39:13;95719.41;;;21.94;97.61
3096;BME280;1558;42.700;23.360;2023-06-05T06:41:42;95722.06;;;22.47;88.87
3096;BME280;1558;42.700;23.360;2023-06-05T06:44:12;95718.50;;;22.64;87.48
3096;BME280;1558;42.700;23.360;2023-06-05T06:46:40;95708.38;;;22.26;86.77
3096;BME280;1558;42.700;23.360;2023-06-05T06:49:08;95717.41;;;22.34;87.73
3096;BME280;1558;42.700;23.360;2023-06-05T06:51:37;95689.94;;;22.16;91.27
3096;BME280;1558;42.700;23.360;2023-06-05T06:54:05;95708.81;;;21.72;89.24
3096;BME280;1558;42.700;23.360;2023-06-05T06:56:33;95713.91;;;21.77;92.33
3096;BME280;1558;42.700;23.360;2023-06-05T06:59:12;95703.28;;;21.75;90.14
3096;BME280;1558;42.700;23.360;2023-06-05T07:01:43;95711.44;;;22.53;86.86
3096;BME280;1558;42.700;23.360;2023-06-05T07:04:14;95705.94;;;22.67;84.60
3096;BME280;1558;42.700;23.360;2023-06-05T07:06:43;95676.50;;;22.50;82.05
3096;BME280;1558;42.700;23.360;2023-06-05T07:09:12;95696.19;;;22.31;83.87
3096;BME280;1558;42.700;23.360;2023-06-05T07:11:40;95703.19;;;22.49;83.72
3096;BME280;1558;42.700;23.360;2023-06-05T07:14:08;95712.22;;;22.57;83.36
3096;BME280;1558;42.700;23.360;2023-06-05T07:16:37;95709.53;;;22.36;84.50
3096;BME280;1558;42.700;23.360;2023-06-05T07:19:05;95673.50;;;21.67;87.00
3096;BME280;1558;42.700;23.360;2023-06-05T07:21:34;95711.94;;;21.95;87.33
3096;BME280;1558;42.700;23.360;2023-06-05T07:24:05;95699.00;;;22.13;88.04
3096;BME280;1558;42.700;23.360;2023-06-05T07:26:34;95706.03;;;22.14;87.08
3096;BME280;1558;42.700;23.360;2023-06-05T07:29:03;95707.25;;;22.06;86.53
3096;BME280;1558;42.700;23.360;2023-06-05T07:31:31;95705.66;;;22.05;89.01
3096;BME280;1558;42.700;23.360;2023-06-05T07:34:02;95713.81;;;22.65;84.91
3096;BME280;1558;42.700;23.360;2023-06-05T07:36:30;95714.09;;;22.92;82.03
3096;BME280;1558;42.700;23.360;2023-06-05T07:38:58;95714.63;;;23.38;79.50
3096;BME280;1558;42.700;23.360;2023-06-05T07:41:26;95713.47;;;23.35;78.93
3096;BME280;1558;42.700;23.360;2023-06-05T07:43:55;95728.88;;;23.19;77.89
3096;BME280;1558;42.700;23.360;2023-06-05T07:46:23;95728.13;;;23.11;80.11
3096;BME280;1558;42.700;23.360;2023-06-05T07:48:51;95725.00;;;23.09;78.71
3096;BME280;1558;42.700;23.360;2023-06-05T07:51:21;95728.88;;;23.22;78.92
3096;BME280;1558;42.700;23.360;2023-06-05T07:53:49;95731.09;;;23.48;77.97
3096;BME280;1558;42.700;23.360;2023-06-05T07:56:17;95729.31;;;23.76;76.22
3096;BME280;1558;42.700;23.360;2023-06-05T07:58:45;95691.81;;;23.30;76.65
3096;BME280;1558;42.700;23.360;2023-06-05T08:01:13;95715.66;;;24.09;76.12
3096;BME280;1558;42.700;23.360;2023-06-05T08:03:42;95726.41;;;24.78;72.08
3096;BME280;1558;42.700;23.360;2023-06-05T08:06:11;95718.03;;;24.04;73.98
3096;BME280;1558;42.700;23.360;2023-06-05T08:08:41;95723.28;;;24.36;72.76
3096;BME280;1558;42.700;23.360;2023-06-05T08:11:09;95727.66;;;24.33;71.37
3096;BME280;1558;42.700;23.360;2023-06-05T08:13:37;95677.97;;;23.96;71.84
3096;BME280;1558;42.700;23.360;2023-06-05T08:16:06;95724.84;;;24.37;72.52
3096;BME280;1558;42.700;23.360;2023-06-05T08:18:34;95711.84;;;23.93;73.08
3096;BME280;1558;42.700;23.360;2023-06-05T08:21:02;95726.19;;;24.59;71.97
3096;BME280;1558;42.700;23.360;2023-06-05T08:23:31;95725.47;;;24.14;73.21
3096;BME280;1558;42.700;23.360;2023-06-05T08:26:01;95730.09;;;24.65;71.00
3096;BME280;1558;42.700;23.360;2023-06-05T08:28:38;95724.22;;;24.59;71.21
3096;BME280;1558;42.700;23.360;2023-06-05T08:31:06;95735.50;;;23.90;72.72
3096;BME280;1558;42.700;23.360;2023-06-05T08:33:35;95741.13;;;23.73;73.29
3096;BME280;1558;42.700;23.360;2023-06-05T08:36:04;95734.88;;;23.72;75.22
3096;BME280;1558;42.700;23.360;2023-06-05T08:38:35;95735.19;;;24.29;72.77
3096;BME280;1558;42.700;23.360;2023-06-05T08:41:09;95699.38;;;24.59;72.40
3096;BME280;1558;42.700;23.360;2023-06-05T08:43:38;95737.47;;;25.66;67.23
3096;BME280;1558;42.700;23.360;2023-06-05T08:46:09;95729.72;;;24.97;68.50
3096;BME280;1558;42.700;23.360;2023-06-05T08:48:42;95734.19;;;24.46;69.93
3096;BME280;1558;42.700;23.360;2023-06-05T08:51:11;95743.16;;;24.95;69.75
3096;BME280;1558;42.700;23.360;2023-06-05T08:53:41;95739.22;;;25.22;68.48
3096;BME280;1558;42.700;23.360;2023-06-05T08:56:13;95725.16;;;25.43;66.85
3096;BME280;1558;42.700;23.360;2023-06-05T08:58:43;95732.50;;;25.80;67.58
3096;BME280;1558;42.700;23.360;2023-06-05T09:01:12;95728.09;;;26.09;63.80
3096;BME280;1558;42.700;23.360;2023-06-05T09:03:40;95731.34;;;26.28;64.44
3096;BME280;1558;42.700;23.360;2023-06-05T09:06:10;95718.34;;;26.25;62.96
3096;BME280;1558;42.700;23.360;2023-06-05T09:08:38;95738.16;;;25.96;61.83
3096;BME280;1558;42.700;23.360;2023-06-05T09:11:27;95714.19;;;24.72;64.29
3096;BME280;1558;42.700;23.360;2023-06-05T09:13:57;95721.47;;;23.71;68.39
3096;BME280;1558;42.700;23.360;2023-06-05T09:16:33;95731.94;;;23.38;72.19
3096;BME280;1558;42.700;23.360;2023-06-05T09:19:05;95731.13;;;23.34;72.81
3096;BME280;1558;42.700;23.360;2023-06-05T09:21:35;95725.38;;;23.11;73.32
3096;BME280;1558;42.700;23.360;2023-06-05T09:24:16;95725.03;;;23.06;74.91
3096;BME280;1558;42.700;23.360;2023-06-05T09:26:51;95669.72;;;22.79;74.99
3096;BME280;1558;42.700;23.360;2023-06-05T09:29:23;95676.53;;;22.39;75.55
3096;BME280;1558;42.700;23.360;2023-06-05T09:31:53;95712.66;;;22.48;76.55
3096;BME280;1558;42.700;23.360;2023-06-05T09:34:22;95722.41;;;22.70;76.31
3096;BME280;1558;42.700;23.360;2023-06-05T09:36:51;95737.75;;;22.61;77.12
3096;BME280;1558;42.700;23.360;2023-06-05T09:39:21;95692.31;;;22.07;77.04
3096;BME280;1558;42.700;23.360;2023-06-05T09:41:54;95733.88;;;22.30;76.28
3096;BME280;1558;42.700;23.360;2023-06-05T09:44:25;95728.03;;;22.10;76.96
3096;BME280;1558;42.700;23.360;2023-06-05T09:46:56;95733.16;;;22.15;77.06
3096;BME280;1558;42.700;23.360;2023-06-05T09:49:27;95721.34;;;22.11;76.36
3096;BME280;1558;42.700;23.360;2023-06-05T09:51:56;95725.69;;;21.98;77.35
3096;BME280;1558;42.700;23.360;2023-06-05T09:54:26;95725.69;;;22.12;78.16
3096;BME280;1558;42.700;23.360;2023-06-05T09:56:58;95712.69;;;22.23;76.64
3096;BME280;1558;42.700;23.360;2023-06-05T09:59:29;95720.94;;;22.31;75.00
3096;BME280;1558;42.700;23.360;2023-06-05T10:02:00;95714.25;;;22.28;74.85
3096;BME280;1558;42.700;23.360;2023-06-05T10:04:29;95713.47;;;22.20;75.07
3096;BME280;1558;42.700;23.360;2023-06-05T10:07:00;95713.91;;;22.15;75.16
3096;BME280;1558;42.700;23.360;2023-06-05T10:09:30;95721.38;;;22.08;76.83
3096;BME280;1558;42.700;23.360;2023-06-05T10:12:01;95702.13;;;22.11;76.99
3096;BME280;1558;42.700;23.360;2023-06-05T10:14:31;95697.75;;;22.35;76.48
3096;BME280;1558;42.700;23.360;2023-06-05T10:17:01;95703.16;;;22.56;76.10
3096;BME280;1558;42.700;23.360;2023-06-05T10:19:30;95699.25;;;22.54;74.24
3096;BME280;1558;42.700;23.360;2023-06-05T10:21:58;95693.31;;;22.73;74.61
3096;BME280;1558;42.700;23.360;2023-06-05T10:24:30;95701.56;;;22.73;74.35
3096;BME280;1558;42.700;23.360;2023-06-05T10:30:54;95695.84;;;23.22;76.28
3096;BME280;1558;42.700;23.360;2023-06-05T10:36:48;95676.31;;;24.02;73.68
3096;BME280;1558;42.700;23.360;2023-06-05T10:39:22;95690.97;;;23.92;73.57
3096;BME280;1558;42.700;23.360;2023-06-05T10:41:52;95692.28;;;24.58;72.46
3096;BME280;1558;42.700;23.360;2023-06-05T10:44:38;95694.19;;;24.99;67.95
3096;BME280;1558;42.700;23.360;2023-06-05T10:50:25;95668.28;;;25.46;67.54
3096;BME280;1558;42.700;23.360;2023-06-05T10:52:55;95679.16;;;25.30;67.16
3096;BME280;1558;42.700;23.360;2023-06-05T10:55:26;95668.88;;;24.40;69.33
3096;BME280;1558;42.700;23.360;2023-06-05T10:58:05;95679.50;;;23.97;73.14
3096;BME280;1558;42.700;23.360;2023-06-05T11:00:36;95665.53;;;24.55;75.65
3096;BME280;1558;42.700;23.360;2023-06-05T11:03:05;95668.44;;;25.62;71.21
3096;BME280;1558;42.700;23.360;2023-06-05T11:05:35;95675.44;;;26.16;70.00
3096;BME280;1558;42.700;23.360;2023-06-05T11:08:12;95668.00;;;26.72;63.80
3096;BME280;1558;42.700;23.360;2023-06-05T11:11:03;95674.75;;;26.52;63.91
3096;BME280;1558;42.700;23.360;2023-06-05T11:13:51;95668.81;;;26.10;63.85
3096;BME280;1558;42.700;23.360;2023-06-05T11:16:27;95664.72;;;26.18;62.57
3096;BME280;1558;42.700;23.360;2023-06-05T11:22:05;95671.97;;;25.63;64.45
3096;BME280;1558;42.700;23.360;2023-06-05T11:24:35;95659.72;;;26.10;63.96
3096;BME280;1558;42.700;23.360;2023-06-05T11:27:03;95652.59;;;27.11;63.68
3096;BME280;1558;42.700;23.360;2023-06-05T11:29:32;95653.25;;;26.99;61.44
3096;BME280;1558;42.700;23.360;2023-06-05T11:32:00;95649.38;;;26.57;60.54
3096;BME280;1558;42.700;23.360;2023-06-05T11:34:38;95627.69;;;26.32;60.82
3096;BME280;1558;42.700;23.360;2023-06-05T11:37:17;95646.25;;;27.10;60.58
3096;BME280;1558;42.700;23.360;2023-06-05T11:39:45;95641.13;;;28.25;58.58
3096;BME280;1558;42.700;23.360;2023-06-05T11:42:21;95640.66;;;28.84;54.41
3096;BME280;1558;42.700;23.360;2023-06-05T11:44:50;95630.94;;;29.05;53.59
3096;BME280;1558;42.700;23.360;2023-06-05T11:47:22;95546.19;;;28.17;53.12
3096;BME280;1558;42.700;23.360;2023-06-05T11:49:50;95618.56;;;27.10;56.75
3096;BME280;1558;42.700;23.360;2023-06-05T11:52:21;95623.13;;;27.85;57.30
3096;BME280;1558;42.700;23.360;2023-06-05T11:54:49;95622.75;;;27.18;57.78
3096;BME280;1558;42.700;23.360;2023-06-05T11:57:39;95624.84;;;27.30;57.21
3096;BME280;1558;42.700;23.360;2023-06-05T12:00:23;95610.13;;;27.82;56.12
3096;BME280;1558;42.700;23.360;2023-06-05T12:02:51;95623.69;;;28.53;54.26
3096;BME280;1558;42.700;23.360;2023-06-05T12:05:20;95618.81;;;27.68;55.56
3096;BME280;1558;42.700;23.360;2023-06-05T12:07:50;95618.78;;;27.84;54.78
3096;BME280;1558;42.700;23.360;2023-06-05T12:10:18;95620.47;;;26.97;55.68
3096;BME280;1558;42.700;23.360;2023-06-05T12:12:50;95620.47;;;27.13;58.06
3096;BME280;1558;42.700;23.360;2023-06-05T12:15:20;95621.53;;;27.19;56.85
3096;BME280;1558;42.700;23.360;2023-06-05T12:17:49;95598.28;;;26.97;56.86
3096;BME280;1558;42.700;23.360;2023-06-05T12:20:19;95610.81;;;27.21;57.20
3096;BME280;1558;42.700;23.360;2023-06-05T12:22:48;95610.53;;;27.16;56.46
3096;BME280;1558;42.700;23.360;2023-06-05T12:25:18;95615.50;;;26.30;58.41
3096;BME280;1558;42.700;23.360;2023-06-05T12:27:47;95602.09;;;25.85;59.18
3096;BME280;1558;42.700;23.360;2023-06-05T12:30:16;95613.09;;;25.66;60.76
3096;BME280;1558;42.700;23.360;2023-06-05T12:32:44;95591.31;;;25.48;61.47
3096;BME280;1558;42.700;23.360;2023-06-05T12:35:19;95555.84;;;24.93;61.21
3096;BME280;1558;42.700;23.360;2023-06-05T12:37:48;95590.88;;;25.23;61.44
3096;BME280;1558;42.700;23.360;2023-06-05T12:40:18;95581.56;;;25.86;60.46
3096;BME280;1558;42.700;23.360;2023-06-05T12:43:02;95575.66;;;25.61;58.90
3096;BME280;1558;42.700;23.360;2023-06-05T12:45:30;95574.44;;;25.39;58.84
3096;BME280;1558;42.700;23.360;2023-06-05T12:48:00;95581.88;;;25.42;59.19
3096;BME280;1558;42.700;23.360;2023-06-05T12:50:29;95565.03;;;25.36;59.56
3096;BME280;1558;42.700;23.360;2023-06-05T12:52:57;95567.97;;;25.72;58.38
3096;BME280;1558;42.700;23.360;2023-06-05T12:55:26;95567.63;;;25.47;58.82
3096;BME280;1558;42.700;23.360;2023-06-05T12:57:55;95569.94;;;25.25;59.89
3096;BME280;1558;42.700;23.360;2023-06-05T13:00:23;95564.34;;;25.75;59.69
3096;BME280;1558;42.700;23.360;2023-06-05T13:02:51;95556.59;;;26.09;57.49
3096;BME280;1558;42.700;23.360;2023-06-05T13:05:21;95549.03;;;26.33;57.69
3096;BME280;1558;42.700;23.360;2023-06-05T13:07:49;95562.44;;;26.35;57.43
3096;BME280;1558;42.700;23.360;2023-06-05T13:10:18;95564.31;;;25.55;59.66
3096;BME280;1558;42.700;23.360;2023-06-05T13:12:47;95550.25;;;25.23;60.19
3096;BME280;1558;42.700;23.360;2023-06-05T13:15:15;95560.59;;;24.62;61.74
3096;BME280;1558;42.700;23.360;2023-06-05T13:17:44;95564.81;;;24.44;63.43
3096;BME280;1558;42.700;23.360;2023-06-05T13:20:13;95565.81;;;24.57;63.58
3096;BME280;1558;42.700;23.360;2023-06-05T13:22:41;95565.50;;;24.81;62.43
3096;BME280;1558;42.700;23.360;2023-06-05T13:25:10;95546.09;;;25.12;60.83
3096;BME280;1558;42.700;23.360;2023-06-05T13:27:39;95559.66;;;25.26;60.63
3096;BME280;1558;42.700;23.360;2023-06-05T13:30:10;95562.84;;;24.71;61.40
3096;BME280;1558;42.700;23.360;2023-06-05T13:32:38;95573.56;;;24.35;62.75